Time;durP1;ratioP1;P1;durP2;ratioP2;P2;SDS_P1;SDS_P2;PMS_P1;PMS_P2;Temp;Humidity;BMP_temperature;BMP_pressure;BME280_temperature;BME280_humidity;BME280_pressure;Samples;Min_cycle;Max_cycle;Signal;HPM_P1;HPM_P2
2021/08/18 00:00:53;;;;;;;14.67;7.83;;;;;;;;;;5033597;28;20224;-78
2021/08/18 00:03:57;;;;;;;11.23;7.10;;;;;;;;;;5020488;28;20193;-78
2021/08/18 00:07:01;;;;;;;11.07;6.60;;;;;;;;;;5015603;28;20189;-77
2021/08/18 00:10:10;;;;;;;10.67;6.93;;;;;;;;;;5031969;28;20212;-77
2021/08/18 00:13:14;;;;;;;11.73;7.27;;;;;;;;;;5035447;28;20548;-78
2021/08/18 00:16:21;;;;;;;12.90;7.70;;;;;;;;;;5014034;28;20177;-77
2021/08/18 00:19:25;;;;;;;13.97;7.70;;;;;;;;;;5013890;28;20204;-77
2021/08/18 00:22:29;;;;;;;13.87;7.87;;;;;;;;;;5013525;28;20601;-77
2021/08/18 00:25:34;;;;;;;13.20;7.30;;;;;;;;;;5014488;28;20189;-77
2021/08/18 00:28:38;;;;;;;12.57;7.90;;;;;;;;;;5015646;28;20193;-77
2021/08/18 00:31:42;;;;;;;12.53;6.90;;;;;;;;;;5032005;28;20224;-77
2021/08/18 00:34:46;;;;;;;12.93;7.47;;;;;;;;;;5021206;28;20193;-78
2021/08/18 00:37:50;;;;;;;15.23;7.57;;;;;;;;;;5014409;28;20185;-78
2021/08/18 00:40:54;;;;;;;16.57;7.70;;;;;;;;;;5015055;28;20209;-77
2021/08/18 00:43:58;;;;;;;16.23;7.67;;;;;;;;;;5018697;28;20189;-79
2021/08/18 00:47:04;;;;;;;12.77;7.73;;;;;;;;;;5024122;28;20188;-78
2021/08/18 00:50:11;;;;;;;12.80;7.80;;;;;;;;;;5033538;28;20204;-77
2021/08/18 00:53:16;;;;;;;15.77;7.73;;;;;;;;;;5040726;28;20200;-78
2021/08/18 00:56:20;;;;;;;11.63;7.23;;;;;;;;;;5022949;28;20185;-78
2021/08/18 00:59:25;;;;;;;13.43;7.53;;;;;;;;;;5020588;28;20190;-78
2021/08/18 01:02:30;;;;;;;14.13;7.70;;;;;;;;;;4997252;28;20225;-78
2021/08/18 01:05:34;;;;;;;13.63;7.33;;;;;;;;;;5022454;28;20181;-78
2021/08/18 01:08:38;;;;;;;13.20;7.30;;;;;;;;;;5023665;28;20193;-78
2021/08/18 01:11:49;;;;;;;12.43;6.97;;;;;;;;;;5020826;28;20221;-78
2021/08/18 01:14:53;;;;;;;10.70;6.83;;;;;;;;;;5030000;28;20196;-78
2021/08/18 01:17:59;;;;;;;10.47;6.70;;;;;;;;;;5043593;28;20181;-78
2021/08/18 01:21:03;;;;;;;10.67;6.37;;;;;;;;;;5025974;28;20221;-78
2021/08/18 01:24:09;;;;;;;12.50;7.60;;;;;;;;;;5023910;28;20201;-78
2021/08/18 01:27:14;;;;;;;11.30;6.47;;;;;;;;;;5026670;28;20194;-78
2021/08/18 01:30:20;;;;;;;11.83;6.93;;;;;;;;;;5033413;28;20185;-78
2021/08/18 01:33:24;;;;;;;13.97;7.40;;;;;;;;;;5045097;28;20181;-78
2021/08/18 01:36:30;;;;;;;14.30;7.37;;;;;;;;;;5043624;28;20209;-78
2021/08/18 01:39:34;;;;;;;12.40;6.87;;;;;;;;;;5025173;28;20184;-78
2021/08/18 01:42:39;;;;;;;13.00;6.73;;;;;;;;;;5022559;28;20228;-78
2021/08/18 01:45:45;;;;;;;14.83;7.20;;;;;;;;;;5043378;28;20176;-78
2021/08/18 01:48:49;;;;;;;14.20;7.27;;;;;;;;;;5042478;28;20173;-78
2021/08/18 01:51:55;;;;;;;14.77;6.73;;;;;;;;;;5042012;28;20220;-78
2021/08/18 01:54:59;;;;;;;10.90;6.33;;;;;;;;;;5027262;28;20189;-78
2021/08/18 01:58:04;;;;;;;11.67;5.97;;;;;;;;;;5022032;28;20181;-78
2021/08/18 02:01:11;;;;;;;11.37;6.13;;;;;;;;;;5023307;28;20217;-78
2021/08/18 02:04:15;;;;;;;10.20;5.80;;;;;;;;;;5035393;28;20182;-78
2021/08/18 02:07:19;;;;;;;11.23;5.80;;;;;;;;;;5044503;28;20651;-78
2021/08/18 02:10:24;;;;;;;10.30;6.17;;;;;;;;;;5033099;28;20197;-78
2021/08/18 02:13:28;;;;;;;10.40;5.90;;;;;;;;;;5015139;28;20197;-78
2021/08/18 02:16:32;;;;;;;12.13;6.27;;;;;;;;;;5026332;28;20190;-78
2021/08/18 02:19:37;;;;;;;9.40;5.97;;;;;;;;;;5032466;28;20197;-78
2021/08/18 02:22:41;;;;;;;8.97;5.67;;;;;;;;;;5033385;28;20565;-78
2021/08/18 02:25:46;;;;;;;8.73;5.37;;;;;;;;;;5035105;28;20197;-78
2021/08/18 02:28:50;;;;;;;9.73;5.90;;;;;;;;;;5015161;28;20182;-78
2021/08/18 02:31:54;;;;;;;11.10;5.70;;;;;;;;;;5028784;28;20221;-78
2021/08/18 02:34:59;;;;;;;10.30;5.40;;;;;;;;;;5040087;28;20644;-78
2021/08/18 02:38:04;;;;;;;10.20;5.97;;;;;;;;;;5026594;28;20185;-78
2021/08/18 02:41:08;;;;;;;12.33;5.80;;;;;;;;;;5025582;28;20221;-78
2021/08/18 02:44:12;;;;;;;10.07;5.80;;;;;;;;;;5026112;28;20178;-78
2021/08/18 02:47:17;;;;;;;9.93;5.23;;;;;;;;;;5027361;28;20668;-78
2021/08/18 02:50:23;;;;;;;10.03;5.83;;;;;;;;;;5026149;28;20185;-77
2021/08/18 02:53:28;;;;;;;13.33;6.23;;;;;;;;;;5027849;28;20185;-78
2021/08/18 02:56:32;;;;;;;9.83;6.10;;;;;;;;;;5035723;28;20219;-78
2021/08/18 02:59:36;;;;;;;13.90;6.10;;;;;;;;;;5037829;28;20192;-78
2021/08/18 03:02:40;;;;;;;9.97;6.37;;;;;;;;;;5025614;28;20220;-78
2021/08/18 03:05:45;;;;;;;10.97;6.17;;;;;;;;;;5041694;28;20656;-78
2021/08/18 03:08:50;;;;;;;11.97;6.23;;;;;;;;;;5044605;28;20188;-77
2021/08/18 03:11:54;;;;;;;10.73;5.70;;;;;;;;;;5044320;28;20216;-77
2021/08/18 03:14:58;;;;;;;10.70;6.40;;;;;;;;;;5037480;28;20208;-78
2021/08/18 03:18:02;;;;;;;10.33;6.40;;;;;;;;;;5035883;28;20664;-78
2021/08/18 03:21:07;;;;;;;11.90;6.70;;;;;;;;;;5025001;28;20225;-78
2021/08/18 03:24:11;;;;;;;10.90;6.23;;;;;;;;;;5036821;28;20529;-78
2021/08/18 03:27:16;;;;;;;12.23;6.97;;;;;;;;;;5027066;28;20204;-78
2021/08/18 03:30:20;;;;;;;14.20;6.37;;;;;;;;;;5036766;28;20189;-78
2021/08/18 03:33:24;;;;;;;10.47;6.07;;;;;;;;;;5045066;28;20173;-78
2021/08/18 03:36:28;;;;;;;12.53;6.93;;;;;;;;;;5032343;28;20201;-78
2021/08/18 03:39:33;;;;;;;13.60;6.83;;;;;;;;;;5018962;28;20205;-78
2021/08/18 03:42:37;;;;;;;13.07;7.00;;;;;;;;;;5039467;28;20228;-78
2021/08/18 03:45:41;;;;;;;12.97;6.73;;;;;;;;;;5036530;28;20181;-79
2021/08/18 03:48:45;;;;;;;19.47;7.53;;;;;;;;;;5019013;28;20188;-77
2021/08/18 03:51:51;;;;;;;13.77;7.23;;;;;;;;;;5021212;28;20217;-78
2021/08/18 03:54:55;;;;;;;16.77;7.37;;;;;;;;;;5027877;28;20184;-79
2021/08/18 03:57:59;;;;;;;13.30;8.07;;;;;;;;;;5021258;28;20220;-78
2021/08/18 04:01:03;;;;;;;14.90;7.93;;;;;;;;;;5036682;28;20225;-78
2021/08/18 04:04:08;;;;;;;14.50;7.40;;;;;;;;;;5017335;28;20182;-79
2021/08/18 04:07:12;;;;;;;16.33;8.00;;;;;;;;;;5025597;28;20197;-78
2021/08/18 04:10:16;;;;;;;14.60;7.97;;;;;;;;;;5035881;28;20666;-78
2021/08/18 04:13:20;;;;;;;15.07;8.03;;;;;;;;;;5032789;28;21023;-78
2021/08/18 04:16:24;;;;;;;16.50;8.07;;;;;;;;;;5022715;28;20205;-78
2021/08/18 04:19:29;;;;;;;12.53;7.60;;;;;;;;;;5035476;28;20196;-78
2021/08/18 04:22:33;;;;;;;14.40;7.43;;;;;;;;;;5033642;28;20224;-78
2021/08/18 04:25:38;;;;;;;17.90;8.47;;;;;;;;;;5029651;28;20193;-78
2021/08/18 04:28:42;;;;;;;14.43;8.17;;;;;;;;;;5017899;28;20186;-78
2021/08/18 04:31:47;;;;;;;15.93;8.40;;;;;;;;;;5026038;28;20217;-78
2021/08/18 04:34:51;;;;;;;17.93;8.43;;;;;;;;;;5018408;28;20177;-79
2021/08/18 04:37:55;;;;;;;18.03;8.87;;;;;;;;;;5035687;28;20188;-78
2021/08/18 04:41:00;;;;;;;17.53;8.90;;;;;;;;;;5034129;28;20581;-78
2021/08/18 04:44:04;;;;;;;16.40;8.27;;;;;;;;;;5027312;28;20217;-78
2021/08/18 04:47:08;;;;;;;15.67;8.43;;;;;;;;;;5037033;28;20193;-78
2021/08/18 04:50:13;;;;;;;16.90;8.43;;;;;;;;;;5039006;28;20354;-79
2021/08/18 04:53:18;;;;;;;16.53;8.63;;;;;;;;;;5041809;28;20185;-78
2021/08/18 04:56:22;;;;;;;18.97;9.03;;;;;;;;;;5040138;28;20192;-80
2021/08/18 04:59:26;;;;;;;15.83;8.30;;;;;;;;;;5025227;28;20197;-78
2021/08/18 05:02:33;;;;;;;19.23;9.20;;;;;;;;;;5019167;28;20225;-78
2021/08/18 05:05:37;;;;;;;16.30;8.80;;;;;;;;;;5021667;28;20186;-78
2021/08/18 05:08:41;;;;;;;17.70;9.00;;;;;;;;;;5046287;28;20192;-77
2021/08/18 05:11:45;;;;;;;16.80;8.93;;;;;;;;;;5039276;28;20221;-77
2021/08/18 05:14:50;;;;;;;17.23;8.67;;;;;;;;;;5024365;28;20185;-78
2021/08/18 05:17:54;;;;;;;15.40;9.20;;;;;;;;;;5041588;28;20173;-78
2021/08/18 05:20:58;;;;;;;16.03;9.70;;;;;;;;;;5021882;28;20243;-78
2021/08/18 05:24:03;;;;;;;20.47;9.80;;;;;;;;;;5023333;28;20386;-79
2021/08/18 05:27:07;;;;;;;17.00;9.27;;;;;;;;;;5014038;28;20177;-78
2021/08/18 05:30:13;;;;;;;17.40;9.90;;;;;;;;;;5025702;28;20193;-78
2021/08/18 05:33:17;;;;;;;19.17;9.83;;;;;;;;;;5044754;28;20181;-79
2021/08/18 05:36:22;;;;;;;17.40;9.63;;;;;;;;;;5026574;28;20189;-79
2021/08/18 05:39:27;;;;;;;19.43;9.87;;;;;;;;;;5027262;28;20181;-78
2021/08/18 05:42:31;;;;;;;16.57;9.63;;;;;;;;;;5049266;28;20220;-79
2021/08/18 05:45:35;;;;;;;18.37;9.13;;;;;;;;;;5048238;28;20180;-78
2021/08/18 05:48:39;;;;;;;19.80;10.03;;;;;;;;;;5027052;28;20182;-78
2021/08/18 05:51:43;;;;;;;17.43;9.40;;;;;;;;;;5020116;28;20228;-77
2021/08/18 05:54:48;;;;;;;16.70;9.00;;;;;;;;;;5032339;28;20189;-77
2021/08/18 05:57:52;;;;;;;15.57;9.33;;;;;;;;;;5034344;28;20524;-78
2021/08/18 06:00:57;;;;;;;19.23;10.20;;;;;;;;;;5019901;28;20229;-78
2021/08/18 06:04:02;;;;;;;18.93;9.77;;;;;;;;;;5023867;28;20228;-77
2021/08/18 06:07:07;;;;;;;18.53;10.63;;;;;;;;;;5042767;28;20651;-77
2021/08/18 06:10:11;;;;;;;20.03;9.63;;;;;;;;;;5049544;28;20196;-77
2021/08/18 06:13:16;;;;;;;17.67;9.63;;;;;;;;;;5034825;28;20200;-77
2021/08/18 06:16:21;;;;;;;19.67;9.47;;;;;;;;;;5034959;28;20196;-77
2021/08/18 06:19:26;;;;;;;19.57;10.10;;;;;;;;;;5035706;28;20208;-77
2021/08/18 06:22:30;;;;;;;16.00;9.63;;;;;;;;;;5042272;28;20239;-77
2021/08/18 06:25:34;;;;;;;17.80;9.57;;;;;;;;;;5055636;28;20196;-77
2021/08/18 06:28:38;;;;;;;16.23;9.47;;;;;;;;;;5055342;28;20620;-77
2021/08/18 06:31:43;;;;;;;20.07;9.93;;;;;;;;;;5056345;28;20670;-78
2021/08/18 06:34:48;;;;;;;18.17;9.83;;;;;;;;;;5055603;28;20173;-78
2021/08/18 06:37:53;;;;;;;16.93;10.27;;;;;;;;;;5056600;28;20505;-77
2021/08/18 06:40:59;;;;;;;18.27;10.13;;;;;;;;;;5055927;28;20583;-77
2021/08/18 06:44:07;;;;;;;19.13;9.93;;;;;;;;;;5055020;28;20215;-77
2021/08/18 06:47:10;;;;;;;18.90;11.13;;;;;;;;;;5055880;28;20180;-77
2021/08/18 06:50:15;;;;;;;16.23;9.47;;;;;;;;;;5055154;28;20277;-77
2021/08/18 06:53:19;;;;;;;20.10;10.23;;;;;;;;;;5055108;28;20180;-77
2021/08/18 06:56:23;;;;;;;18.93;11.00;;;;;;;;;;5055071;28;20191;-77
2021/08/18 06:59:28;;;;;;;19.03;10.70;;;;;;;;;;5043911;28;20200;-78
2021/08/18 07:02:32;;;;;;;19.30;10.50;;;;;;;;;;5036599;28;20223;-78
2021/08/18 07:05:36;;;;;;;18.70;10.80;;;;;;;;;;5024126;28;20228;-78
2021/08/18 07:08:40;;;;;;;16.17;9.87;;;;;;;;;;5036753;28;20646;-77
2021/08/18 07:11:44;;;;;;;19.83;10.03;;;;;;;;;;5035293;28;20220;-78
2021/08/18 07:14:49;;;;;;;17.43;11.00;;;;;;;;;;5034397;28;20184;-77
2021/08/18 07:17:53;;;;;;;19.93;11.67;;;;;;;;;;5033786;28;20188;-77
2021/08/18 07:20:57;;;;;;;18.60;11.47;;;;;;;;;;5033969;28;20223;-79
2021/08/18 07:24:01;;;;;;;17.33;10.90;;;;;;;;;;5021960;28;20224;-77
2021/08/18 07:27:05;;;;;;;17.57;10.43;;;;;;;;;;5034712;28;20188;-77
2021/08/18 07:30:10;;;;;;;21.23;11.63;;;;;;;;;;5034058;28;20552;-77
2021/08/18 07:33:14;;;;;;;19.67;10.70;;;;;;;;;;5033266;28;20683;-77
2021/08/18 07:36:18;;;;;;;18.63;10.00;;;;;;;;;;5033449;28;20180;-77
2021/08/18 07:39:22;;;;;;;16.97;9.73;;;;;;;;;;5033844;28;20260;-77
2021/08/18 07:42:27;;;;;;;20.73;10.30;;;;;;;;;;5035241;28;20216;-78
2021/08/18 07:45:31;;;;;;;16.40;10.73;;;;;;;;;;5036153;28;20651;-78
2021/08/18 07:48:34;;;;;;;19.17;10.20;;;;;;;;;;5038200;28;20196;-77
2021/08/18 07:51:39;;;;;;;18.77;11.53;;;;;;;;;;5037280;28;20227;-78
2021/08/18 07:54:43;;;;;;;16.47;10.17;;;;;;;;;;5035705;28;20184;-77
2021/08/18 07:57:47;;;;;;;15.00;9.90;;;;;;;;;;5021811;28;20540;-77
2021/08/18 08:00:51;;;;;;;18.03;10.17;;;;;;;;;;5053278;28;20227;-77
2021/08/18 08:03:55;;;;;;;15.23;10.40;;;;;;;;;;5053950;28;20697;-76
2021/08/18 08:06:59;;;;;;;15.57;10.73;;;;;;;;;;5053738;28;20658;-77
2021/08/18 08:10:05;;;;;;;16.17;10.07;;;;;;;;;;5054341;28;20187;-77
2021/08/18 08:13:09;;;;;;;18.70;10.17;;;;;;;;;;5052346;28;20215;-77
2021/08/18 08:16:13;;;;;;;18.70;11.80;;;;;;;;;;5047841;28;20195;-77
2021/08/18 08:19:17;;;;;;;18.83;10.63;;;;;;;;;;5050262;28;20198;-77
2021/08/18 08:22:21;;;;;;;19.70;10.33;;;;;;;;;;5022738;28;20231;-77
2021/08/18 08:25:25;;;;;;;19.10;9.60;;;;;;;;;;5014895;28;20188;-78
2021/08/18 08:28:29;;;;;;;15.77;9.93;;;;;;;;;;5015892;28;20181;-77
2021/08/18 08:31:33;;;;;;;16.47;9.77;;;;;;;;;;5028568;28;20561;-78
2021/08/18 08:34:38;;;;;;;14.83;10.13;;;;;;;;;;5014522;28;20186;-77
2021/08/18 08:37:42;;;;;;;15.50;9.07;;;;;;;;;;5034557;28;20200;-78
2021/08/18 08:40:47;;;;;;;15.17;9.27;;;;;;;;;;5032549;28;20224;-77
2021/08/18 08:43:52;;;;;;;15.83;9.83;;;;;;;;;;5032125;28;20209;-78
2021/08/18 08:46:56;;;;;;;13.40;8.93;;;;;;;;;;5018915;28;20182;-77
2021/08/18 08:50:01;;;;;;;14.37;8.70;;;;;;;;;;5033973;28;20552;-77
2021/08/18 08:53:06;;;;;;;12.10;7.70;;;;;;;;;;5032421;28;20192;-76
2021/08/18 08:56:10;;;;;;;14.80;8.37;;;;;;;;;;5032592;28;20176;-76
2021/08/18 08:59:14;;;;;;;12.93;8.07;;;;;;;;;;5013880;28;20185;-77
2021/08/18 09:02:20;;;;;;;10.67;6.60;;;;;;;;;;5014067;28;20224;-77
2021/08/18 09:05:27;;;;;;;10.83;7.60;;;;;;;;;;5024257;28;20677;-77
2021/08/18 09:08:31;;;;;;;10.47;6.97;;;;;;;;;;5029518;28;20188;-77
2021/08/18 09:11:36;;;;;;;11.37;7.03;;;;;;;;;;5032835;28;20220;-77
2021/08/18 09:14:41;;;;;;;12.13;7.77;;;;;;;;;;5037037;28;20667;-78
2021/08/18 09:17:48;;;;;;;14.07;7.67;;;;;;;;;;5033297;28;20180;-77
2021/08/18 09:20:52;;;;;;;13.67;7.60;;;;;;;;;;5022550;28;20216;-77
2021/08/18 09:24:12;;;;;;;14.20;8.27;;;;;;;;;;5036676;28;20205;-77
2021/08/18 09:27:24;;;;;;;12.63;7.87;;;;;;;;;;5030391;28;20197;-77
2021/08/18 09:30:34;;;;;;;12.67;7.63;;;;;;;;;;5025996;28;20538;-77
2021/08/18 09:33:41;;;;;;;11.40;7.77;;;;;;;;;;5024834;28;20185;-77
2021/08/18 09:36:45;;;;;;;12.50;7.70;;;;;;;;;;5037114;28;20296;-77
2021/08/18 09:39:49;;;;;;;12.40;7.70;;;;;;;;;;5020084;28;20201;-78
2021/08/18 09:43:05;;;;;;;11.50;7.50;;;;;;;;;;5041985;28;20647;-73
2021/08/18 09:46:09;;;;;;;10.23;6.83;;;;;;;;;;5047337;28;20652;-75
2021/08/18 09:49:13;;;;;;;11.30;7.17;;;;;;;;;;5031175;28;20198;-75
2021/08/18 09:52:20;;;;;;;10.70;7.00;;;;;;;;;;5016422;28;20217;-75
2021/08/18 09:55:24;;;;;;;11.00;6.40;;;;;;;;;;5016747;28;20637;-75
2021/08/18 09:58:34;;;;;;;13.33;6.87;;;;;;;;;;5022871;28;20193;-75
2021/08/18 10:01:39;;;;;;;10.37;6.73;;;;;;;;;;5013993;28;20577;-75
2021/08/18 10:04:44;;;;;;;12.03;7.87;;;;;;;;;;5011732;28;20214;-75
2021/08/18 10:07:48;;;;;;;9.30;6.73;;;;;;;;;;5012640;28;20182;-76
2021/08/18 10:10:53;;;;;;;10.97;7.23;;;;;;;;;;5026535;28;20212;-75
2021/08/18 10:13:58;;;;;;;13.20;7.53;;;;;;;;;;5029453;28;20200;-75
2021/08/18 10:17:01;;;;;;;12.17;8.00;;;;;;;;;;5025161;28;20185;-75
2021/08/18 10:20:08;;;;;;;11.57;7.53;;;;;;;;;;5026198;28;20197;-75
2021/08/18 10:23:12;;;;;;;11.97;7.43;;;;;;;;;;5015474;28;20182;-75
2021/08/18 10:26:32;;;;;;;11.33;7.47;;;;;;;;;;5018451;28;20545;-75
2021/08/18 10:29:40;;;;;;;10.93;7.30;;;;;;;;;;5020029;28;20201;-75
2021/08/18 10:32:44;;;;;;;10.53;7.67;;;;;;;;;;5035507;28;20565;-76
2021/08/18 10:35:48;;;;;;;12.10;8.27;;;;;;;;;;5035561;28;20612;-77
2021/08/18 10:38:52;;;;;;;12.30;7.83;;;;;;;;;;5019788;28;20194;-76
2021/08/18 10:42:10;;;;;;;14.37;7.70;;;;;;;;;;5015972;28;20221;-77
2021/08/18 10:45:17;;;;;;;12.23;8.17;;;;;;;;;;5015513;28;20218;-76
2021/08/18 10:48:53;;;;;;;14.37;8.07;;;;;;;;;;5015577;28;20193;-76
2021/08/18 10:51:57;;;;;;;13.03;7.47;;;;;;;;;;5015267;28;20546;-76
2021/08/18 10:55:12;;;;;;;16.13;8.17;;;;;;;;;;5012782;28;20185;-74
2021/08/18 10:58:27;;;;;;;11.50;8.43;;;;;;;;;;5021051;28;20201;-74
2021/08/18 11:01:41;;;;;;;11.97;7.73;;;;;;;;;;5011804;28;20221;-74
2021/08/18 11:04:47;;;;;;;16.63;8.93;;;;;;;;;;5011335;28;20213;-74
2021/08/18 11:08:19;;;;;;;12.73;8.17;;;;;;;;;;5012306;28;20190;-74
2021/08/18 11:11:23;;;;;;;11.77;7.23;;;;;;;;;;5026371;28;20216;-74
2021/08/18 11:14:36;;;;;;;16.63;8.40;;;;;;;;;;5030607;28;20204;-74
2021/08/18 11:17:42;;;;;;;13.47;8.10;;;;;;;;;;5031222;28;20189;-74
2021/08/18 11:20:48;;;;;;;14.27;9.10;;;;;;;;;;5013588;28;20566;-74
2021/08/18 11:23:58;;;;;;;9.23;6.63;;;;;;;;;;5018453;28;20192;-74
2021/08/18 11:27:02;;;;;;;10.57;6.90;;;;;;;;;;5029433;28;20177;-74
2021/08/18 11:30:07;;;;;;;10.73;7.30;;;;;;;;;;5019240;28;20201;-74
2021/08/18 11:33:19;;;;;;;11.73;7.67;;;;;;;;;;5011037;28;20186;-74
2021/08/18 11:36:24;;;;;;;12.03;7.83;;;;;;;;;;5010282;28;20182;-74
2021/08/18 11:39:34;;;;;;;10.73;7.57;;;;;;;;;;5029773;28;20193;-72
2021/08/18 11:42:44;;;;;;;11.43;7.40;;;;;;;;;;5030374;28;20988;-72
2021/08/18 11:45:51;;;;;;;10.27;7.40;;;;;;;;;;5034113;28;20200;-71
2021/08/18 11:49:09;;;;;;;11.40;7.50;;;;;;;;;;5032766;28;20193;-71
2021/08/18 11:52:18;;;;;;;9.03;7.30;;;;;;;;;;5014297;28;20696;-71
2021/08/18 11:55:26;;;;;;;9.57;6.80;;;;;;;;;;5033981;28;20628;-72
2021/08/18 11:58:33;;;;;;;12.07;7.67;;;;;;;;;;5033949;28;20173;-72
2021/08/18 12:01:37;;;;;;;12.17;7.83;;;;;;;;;;5033506;28;20220;-71
2021/08/18 12:04:42;;;;;;;12.13;7.97;;;;;;;;;;5024913;28;20209;-71
2021/08/18 12:07:46;;;;;;;11.40;7.60;;;;;;;;;;5026767;28;20188;-72
2021/08/18 12:10:50;;;;;;;12.10;8.00;;;;;;;;;;5016901;28;20562;-72
2021/08/18 12:13:54;;;;;;;9.90;6.90;;;;;;;;;;5013687;28;20668;-72
2021/08/18 12:16:59;;;;;;;10.93;7.00;;;;;;;;;;5014237;28;20217;-72
2021/08/18 12:20:03;;;;;;;9.10;7.03;;;;;;;;;;5021623;28;20525;-72
2021/08/18 12:23:23;;;;;;;9.10;6.73;;;;;;;;;;5033572;28;20181;-72
2021/08/18 12:26:35;;;;;;;11.67;6.53;;;;;;;;;;5030116;28;20220;-72
2021/08/18 12:29:41;;;;;;;7.97;5.77;;;;;;;;;;5014364;28;20640;-72
2021/08/18 12:32:45;;;;;;;8.27;5.70;;;;;;;;;;5013670;28;20680;-72
2021/08/18 12:36:11;;;;;;;7.70;5.20;;;;;;;;;;5014058;28;20173;-72
2021/08/18 12:39:15;;;;;;;11.80;5.43;;;;;;;;;;5015051;28;20197;-72
2021/08/18 12:42:21;;;;;;;8.73;5.67;;;;;;;;;;5021235;28;20221;-72
2021/08/18 12:45:28;;;;;;;9.07;6.10;;;;;;;;;;5012443;28;20217;-72
2021/08/18 12:48:32;;;;;;;7.77;5.60;;;;;;;;;;5032858;28;20196;-72
2021/08/18 12:51:36;;;;;;;9.97;5.50;;;;;;;;;;5017237;28;20228;-72
2021/08/18 12:54:40;;;;;;;10.27;5.67;;;;;;;;;;5024409;28;20200;-72
2021/08/18 12:57:44;;;;;;;9.63;5.73;;;;;;;;;;5017277;28;20204;-72
2021/08/18 13:00:50;;;;;;;7.57;5.40;;;;;;;;;;5018274;28;20558;-72
2021/08/18 13:03:54;;;;;;;8.70;6.17;;;;;;;;;;5021585;28;20197;-72
2021/08/18 13:06:58;;;;;;;8.83;6.00;;;;;;;;;;5017861;28;20178;-72
2021/08/18 13:10:05;;;;;;;10.70;5.40;;;;;;;;;;5021034;28;20190;-72
2021/08/18 13:13:10;;;;;;;7.33;4.93;;;;;;;;;;5017429;28;20668;-72
2021/08/18 13:16:14;;;;;;;7.63;5.67;;;;;;;;;;5017756;28;20608;-72
2021/08/18 13:19:18;;;;;;;10.53;5.80;;;;;;;;;;5018094;28;20189;-72
2021/08/18 13:22:22;;;;;;;8.03;5.60;;;;;;;;;;5016914;28;20221;-72
2021/08/18 13:25:26;;;;;;;8.77;5.80;;;;;;;;;;5016622;28;20209;-72
2021/08/18 13:28:31;;;;;;;8.13;5.87;;;;;;;;;;5018566;28;20181;-72
2021/08/18 13:31:35;;;;;;;8.90;6.13;;;;;;;;;;5020139;28;20217;-72
2021/08/18 13:34:41;;;;;;;9.03;6.60;;;;;;;;;;5016632;28;20190;-71
2021/08/18 13:37:45;;;;;;;11.27;6.63;;;;;;;;;;5029621;28;20189;-72
2021/08/18 13:40:50;;;;;;;8.10;6.20;;;;;;;;;;5020993;28;20700;-72
2021/08/18 13:43:55;;;;;;;8.03;5.20;;;;;;;;;;5027510;28;20192;-72
2021/08/18 13:46:59;;;;;;;8.23;5.70;;;;;;;;;;5016584;28;20174;-72
2021/08/18 13:50:04;;;;;;;6.77;4.77;;;;;;;;;;5018550;28;20185;-72
2021/08/18 13:53:08;;;;;;;7.53;5.17;;;;;;;;;;5036119;28;20644;-72
2021/08/18 13:56:12;;;;;;;6.90;4.90;;;;;;;;;;5034018;28;20184;-71
2021/08/18 13:59:16;;;;;;;9.60;5.30;;;;;;;;;;5035173;28;20185;-72
2021/08/18 14:02:20;;;;;;;6.57;5.10;;;;;;;;;;5028651;28;20217;-72
2021/08/18 14:05:24;;;;;;;6.63;4.60;;;;;;;;;;5035718;28;20216;-72
2021/08/18 14:08:29;;;;;;;7.53;5.27;;;;;;;;;;5033827;28;20185;-72
2021/08/18 14:11:33;;;;;;;7.47;5.27;;;;;;;;;;5033569;28;20221;-72
2021/08/18 14:14:37;;;;;;;9.37;5.87;;;;;;;;;;5022895;28;20209;-72
2021/08/18 14:17:42;;;;;;;8.63;5.83;;;;;;;;;;5015979;28;20173;-72
2021/08/18 14:20:47;;;;;;;7.83;5.83;;;;;;;;;;5016647;28;20209;-72
2021/08/18 14:23:51;;;;;;;8.83;5.63;;;;;;;;;;5029459;28;20189;-72
2021/08/18 14:26:55;;;;;;;8.83;5.87;;;;;;;;;;5023908;28;20688;-72
2021/08/18 14:29:59;;;;;;;6.53;5.50;;;;;;;;;;5015019;28;20181;-72
2021/08/18 14:33:04;;;;;;;7.57;5.33;;;;;;;;;;5046435;28;20191;-72
2021/08/18 14:36:08;;;;;;;9.73;6.00;;;;;;;;;;5055707;28;20501;-72
2021/08/18 14:39:13;;;;;;;10.43;5.13;;;;;;;;;;5055107;28;20180;-72
2021/08/18 14:42:18;;;;;;;8.87;5.40;;;;;;;;;;5055725;28;20224;-72
2021/08/18 14:45:22;;;;;;;9.80;5.70;;;;;;;;;;5045298;28;20680;-72
2021/08/18 14:48:26;;;;;;;8.03;5.40;;;;;;;;;;5015369;28;20664;-71
2021/08/18 14:51:30;;;;;;;7.43;5.23;;;;;;;;;;5015314;28;20217;-72
2021/08/18 14:54:37;;;;;;;7.33;4.97;;;;;;;;;;5014986;28;20197;-72
2021/08/18 14:57:42;;;;;;;9.70;5.43;;;;;;;;;;5015474;28;20185;-71
2021/08/18 15:00:46;;;;;;;6.80;5.33;;;;;;;;;;5015394;28;20221;-72
2021/08/18 15:03:50;;;;;;;6.87;4.67;;;;;;;;;;5015421;28;20189;-71
2021/08/18 15:06:54;;;;;;;7.17;4.83;;;;;;;;;;5014546;28;20209;-71
2021/08/18 15:09:58;;;;;;;7.60;5.33;;;;;;;;;;5031145;28;20192;-71
2021/08/18 15:13:02;;;;;;;7.50;5.43;;;;;;;;;;5034797;28;20196;-72
2021/08/18 15:16:07;;;;;;;7.30;5.60;;;;;;;;;;5053272;28;20188;-72
2021/08/18 15:19:11;;;;;;;6.90;5.13;;;;;;;;;;5046993;28;20189;-72
2021/08/18 15:22:15;;;;;;;9.13;5.80;;;;;;;;;;5013963;28;20696;-72
2021/08/18 15:25:20;;;;;;;8.60;5.63;;;;;;;;;;5017848;28;20522;-72
2021/08/18 15:28:25;;;;;;;8.63;5.80;;;;;;;;;;5011232;28;20185;-73
2021/08/18 15:31:29;;;;;;;7.23;4.77;;;;;;;;;;5027269;28;20221;-72
2021/08/18 15:34:34;;;;;;;8.77;5.23;;;;;;;;;;5025586;28;20185;-71
2021/08/18 15:37:40;;;;;;;6.37;4.43;;;;;;;;;;5017686;28;20193;-72
2021/08/18 15:40:45;;;;;;;7.33;4.77;;;;;;;;;;5022338;28;20696;-73
2021/08/18 15:43:50;;;;;;;7.50;4.50;;;;;;;;;;5023597;28;20197;-72
2021/08/18 15:46:54;;;;;;;5.47;4.17;;;;;;;;;;5011791;28;20216;-72
2021/08/18 15:49:58;;;;;;;5.03;3.63;;;;;;;;;;5010415;28;20640;-73
2021/08/18 15:53:02;;;;;;;5.90;4.03;;;;;;;;;;5010925;28;20197;-72
2021/08/18 15:56:07;;;;;;;7.57;3.80;;;;;;;;;;5027731;28;20200;-72
2021/08/18 15:59:12;;;;;;;6.07;3.97;;;;;;;;;;5030198;28;20204;-73
2021/08/18 16:02:17;;;;;;;6.23;4.43;;;;;;;;;;5029954;28;20220;-73
2021/08/18 16:05:21;;;;;;;9.17;4.33;;;;;;;;;;5022860;28;20193;-72
2021/08/18 16:08:25;;;;;;;5.33;3.90;;;;;;;;;;5010658;28;20206;-73
2021/08/18 16:11:30;;;;;;;4.40;3.70;;;;;;;;;;5010403;28;20212;-73
2021/08/18 16:14:34;;;;;;;8.23;3.93;;;;;;;;;;5027945;28;20208;-72
2021/08/18 16:17:39;;;;;;;5.27;3.70;;;;;;;;;;5010782;28;20185;-72
2021/08/18 16:20:44;;;;;;;6.93;4.40;;;;;;;;;;5028784;28;20228;-72
2021/08/18 16:23:48;;;;;;;4.93;3.57;;;;;;;;;;5028154;28;20185;-73
2021/08/18 16:26:53;;;;;;;5.67;3.33;;;;;;;;;;5025452;28;20212;-73
2021/08/18 16:29:57;;;;;;;5.53;3.53;;;;;;;;;;5023715;28;20679;-72
2021/08/18 16:33:01;;;;;;;6.33;3.77;;;;;;;;;;5011074;28;20193;-72
2021/08/18 16:36:05;;;;;;;8.27;3.80;;;;;;;;;;5010394;28;20541;-72
2021/08/18 16:39:10;;;;;;;6.00;3.80;;;;;;;;;;5010001;28;20692;-72
2021/08/18 16:42:14;;;;;;;5.53;3.80;;;;;;;;;;5020561;28;20213;-72
2021/08/18 16:45:18;;;;;;;4.77;3.17;;;;;;;;;;5026739;28;20188;-72
2021/08/18 16:48:22;;;;;;;7.03;4.23;;;;;;;;;;5010135;28;20182;-72
2021/08/18 16:51:26;;;;;;;5.07;3.13;;;;;;;;;;5013679;28;20228;-72
2021/08/18 16:54:30;;;;;;;5.80;4.03;;;;;;;;;;5027629;28;20197;-72
2021/08/18 16:57:35;;;;;;;5.50;3.60;;;;;;;;;;5026484;28;20185;-72
2021/08/18 17:00:39;;;;;;;5.60;3.90;;;;;;;;;;5023222;28;20197;-72
2021/08/18 17:03:43;;;;;;;6.30;3.70;;;;;;;;;;5016694;28;20185;-72
2021/08/18 17:06:48;;;;;;;5.63;3.33;;;;;;;;;;5012982;28;20213;-72
2021/08/18 17:09:53;;;;;;;7.23;3.50;;;;;;;;;;5030341;28;20193;-71
2021/08/18 17:12:57;;;;;;;5.17;3.43;;;;;;;;;;5010248;28;20235;-72
2021/08/18 17:16:01;;;;;;;7.60;3.77;;;;;;;;;;5009416;28;20696;-72
2021/08/18 17:19:05;;;;;;;5.07;3.50;;;;;;;;;;5009971;28;20178;-72
2021/08/18 17:22:11;;;;;;;5.13;3.13;;;;;;;;;;5011265;28;20233;-72
2021/08/18 17:25:16;;;;;;;6.37;3.60;;;;;;;;;;5029301;28;20204;-72
2021/08/18 17:28:20;;;;;;;4.93;3.53;;;;;;;;;;5029361;28;20185;-72
2021/08/18 17:31:25;;;;;;;4.57;3.23;;;;;;;;;;5029187;28;20224;-72
2021/08/18 17:34:29;;;;;;;5.13;4.07;;;;;;;;;;5030321;28;20679;-72
2021/08/18 17:37:34;;;;;;;6.97;3.40;;;;;;;;;;5018914;28;20193;-72
2021/08/18 17:40:40;;;;;;;4.93;3.43;;;;;;;;;;5033007;28;20189;-72
2021/08/18 17:43:45;;;;;;;6.27;3.37;;;;;;;;;;5019114;28;20205;-72
2021/08/18 17:46:49;;;;;;;6.20;3.27;;;;;;;;;;5013975;28;20541;-72
2021/08/18 17:49:53;;;;;;;5.20;3.37;;;;;;;;;;5016059;28;20200;-72
2021/08/18 17:52:57;;;;;;;5.50;3.77;;;;;;;;;;5032833;28;20839;-72
2021/08/18 17:56:02;;;;;;;5.83;3.43;;;;;;;;;;5032779;28;20632;-72
2021/08/18 17:59:07;;;;;;;4.70;3.20;;;;;;;;;;5027648;28;20193;-72
2021/08/18 18:02:11;;;;;;;6.50;3.63;;;;;;;;;;5030574;28;20216;-72
2021/08/18 18:05:15;;;;;;;6.73;3.53;;;;;;;;;;5012527;28;20182;-72
2021/08/18 18:08:20;;;;;;;6.07;3.70;;;;;;;;;;5025101;28;20185;-72
2021/08/18 18:11:24;;;;;;;4.43;3.07;;;;;;;;;;5011642;28;20216;-72
2021/08/18 18:14:29;;;;;;;5.13;3.83;;;;;;;;;;5025046;28;20205;-73
2021/08/18 18:17:33;;;;;;;6.73;3.40;;;;;;;;;;5020346;28;20193;-72